sensor_id;sensor_type;location;lat;lon;timestamp;temperature;humidity
18043;DHT22;9146;48.074;11.968;2023-07-09T00:01:13;18.20;99.90
18043;DHT22;9146;48.074;11.968;2023-07-09T00:03:40;18.20;99.90
18043;DHT22;9146;48.074;11.968;2023-07-09T00:06:07;18.20;99.90
18043;DHT22;9146;48.074;11.968;2023-07-09T00:08:34;18.20;99.90
18043;DHT22;9146;48.074;11.968;2023-07-09T00:11:05;18.10;99.90
18043;DHT22;9146;48.074;11.968;2023-07-09T00:13:32;18.10;99.90
18043;DHT22;9146;48.074;11.968;2023-07-09T00:16:01;18.00;99.90
18043;DHT22;9146;48.074;11.968;2023-07-09T00:18:28;18.00;99.90
18043;DHT22;9146;48.074;11.968;2023-07-09T00:20:55;18.00;99.90
18043;DHT22;9146;48.074;11.968;2023-07-09T00:23:22;18.00;99.90
18043;DHT22;9146;48.074;11.968;2023-07-09T00:25:48;17.90;99.90
18043;DHT22;9146;48.074;11.968;2023-07-09T00:28:17;17.90;99.90
18043;DHT22;9146;48.074;11.968;2023-07-09T00:30:45;17.80;99.90
18043;DHT22;9146;48.074;11.968;2023-07-09T00:33:13;17.80;99.90
18043;DHT22;9146;48.074;11.968;2023-07-09T00:35:41;17.80;99.90
18043;DHT22;9146;48.074;11.968;2023-07-09T00:38:13;17.80;99.90
18043;DHT22;9146;48.074;11.968;2023-07-09T00:40:46;17.70;99.90
18043;DHT22;9146;48.074;11.968;2023-07-09T00:43:17;17.70;99.90
18043;DHT22;9146;48.074;11.968;2023-07-09T00:45:44;17.70;99.90
18043;DHT22;9146;48.074;11.968;2023-07-09T00:48:14;17.70;99.90
18043;DHT22;9146;48.074;11.968;2023-07-09T00:50:48;17.60;99.90
18043;DHT22;9146;48.074;11.968;2023-07-09T00:53:18;17.60;99.90
18043;DHT22;9146;48.074;11.968;2023-07-09T00:55:51;17.60;99.90
18043;DHT22;9146;48.074;11.968;2023-07-09T00:58:21;17.50;99.90
18043;DHT22;9146;48.074;11.968;2023-07-09T01:00:56;17.50;99.90
18043;DHT22;9146;48.074;11.968;2023-07-09T01:03:29;17.50;99.90
18043;DHT22;9146;48.074;11.968;2023-07-09T01:05:59;17.50;99.90
18043;DHT22;9146;48.074;11.968;2023-07-09T01:08:29;17.50;99.90
18043;DHT22;9146;48.074;11.968;2023-07-09T01:10:58;17.50;99.90
18043;DHT22;9146;48.074;11.968;2023-07-09T01:13:27;17.60;99.90
18043;DHT22;9146;48.074;11.968;2023-07-09T01:15:55;17.60;99.90
18043;DHT22;9146;48.074;11.968;2023-07-09T01:18:22;17.50;99.90
18043;DHT22;9146;48.074;11.968;2023-07-09T01:20:50;17.50;99.90
18043;DHT22;9146;48.074;11.968;2023-07-09T01:23:19;17.50;99.90
18043;DHT22;9146;48.074;11.968;2023-07-09T01:25:48;17.40;99.90
18043;DHT22;9146;48.074;11.968;2023-07-09T01:28:20;17.40;99.90
18043;DHT22;9146;48.074;11.968;2023-07-09T01:30:48;17.40;99.90
18043;DHT22;9146;48.074;11.968;2023-07-09T01:33:20;17.30;99.90
18043;DHT22;9146;48.074;11.968;2023-07-09T01:35:47;17.30;99.90
18043;DHT22;9146;48.074;11.968;2023-07-09T01:38:14;17.30;99.90
18043;DHT22;9146;48.074;11.968;2023-07-09T01:40:43;17.30;99.90
18043;DHT22;9146;48.074;11.968;2023-07-09T01:43:11;17.20;99.90
18043;DHT22;9146;48.074;11.968;2023-07-09T01:45:38;17.20;99.90
18043;DHT22;9146;48.074;11.968;2023-07-09T01:48:06;17.20;99.90
18043;DHT22;9146;48.074;11.968;2023-07-09T01:50:41;17.20;99.90
18043;DHT22;9146;48.074;11.968;2023-07-09T01:53:09;17.20;99.90
18043;DHT22;9146;48.074;11.968;2023-07-09T01:55:36;17.20;99.90
18043;DHT22;9146;48.074;11.968;2023-07-09T01:58:05;17.20;99.90
18043;DHT22;9146;48.074;11.968;2023-07-09T02:00:34;17.20;99.90
18043;DHT22;9146;48.074;11.968;2023-07-09T02:03:01;17.20;99.90
18043;DHT22;9146;48.074;11.968;2023-07-09T02:05:31;17.30;99.90
18043;DHT22;9146;48.074;11.968;2023-07-09T02:07:59;17.20;99.90
18043;DHT22;9146;48.074;11.968;2023-07-09T02:10:25;17.20;99.90
18043;DHT22;9146;48.074;11.968;2023-07-09T02:12:52;17.30;99.90
18043;DHT22;9146;48.074;11.968;2023-07-09T02:15:21;17.20;99.90
18043;DHT22;9146;48.074;11.968;2023-07-09T02:17:48;17.30;99.90
18043;DHT22;9146;48.074;11.968;2023-07-09T02:20:14;17.20;99.90
18043;DHT22;9146;48.074;11.968;2023-07-09T02:22:42;17.20;99.90
18043;DHT22;9146;48.074;11.968;2023-07-09T02:25:09;17.20;99.90
18043;DHT22;9146;48.074;11.968;2023-07-09T02:27:37;17.10;99.90
18043;DHT22;9146;48.074;11.968;2023-07-09T02:30:05;17.10;99.90
18043;DHT22;9146;48.074;11.968;2023-07-09T02:32:34;17.00;99.90
18043;DHT22;9146;48.074;11.968;2023-07-09T02:35:01;17.00;99.90
18043;DHT22;9146;48.074;11.968;2023-07-09T02:37:28;16.90;99.90
18043;DHT22;9146;48.074;11.968;2023-07-09T02:39:55;16.80;99.90
18043;DHT22;9146;48.074;11.968;2023-07-09T02:42:22;16.80;99.90
18043;DHT22;9146;48.074;11.968;2023-07-09T02:44:50;16.80;99.90
18043;DHT22;9146;48.074;11.968;2023-07-09T02:47:18;16.70;99.90
18043;DHT22;9146;48.074;11.968;2023-07-09T02:49:47;16.70;99.90
18043;DHT22;9146;48.074;11.968;2023-07-09T02:52:14;16.60;99.90
18043;DHT22;9146;48.074;11.968;2023-07-09T02:54:40;16.60;99.90
18043;DHT22;9146;48.074;11.968;2023-07-09T02:57:08;16.60;99.90
18043;DHT22;9146;48.074;11.968;2023-07-09T02:59:35;16.60;99.90
18043;DHT22;9146;48.074;11.968;2023-07-09T03:02:02;16.60;99.90
18043;DHT22;9146;48.074;11.968;2023-07-09T03:04:29;16.60;99.90
18043;DHT22;9146;48.074;11.968;2023-07-09T03:06:58;16.60;99.90
18043;DHT22;9146;48.074;11.968;2023-07-09T03:09:26;16.60;99.90
18043;DHT22;9146;48.074;11.968;2023-07-09T03:11:53;16.60;99.90
18043;DHT22;9146;48.074;11.968;2023-07-09T03:14:23;16.60;99.90
18043;DHT22;9146;48.074;11.968;2023-07-09T03:16:50;16.60;99.90
18043;DHT22;9146;48.074;11.968;2023-07-09T03:19:17;16.60;99.90
18043;DHT22;9146;48.074;11.968;2023-07-09T03:21:44;16.60;99.90
18043;DHT22;9146;48.074;11.968;2023-07-09T03:24:12;16.60;99.90
18043;DHT22;9146;48.074;11.968;2023-07-09T03:26:40;16.60;99.90
18043;DHT22;9146;48.074;11.968;2023-07-09T03:29:07;16.60;99.90
18043;DHT22;9146;48.074;11.968;2023-07-09T03:31:34;16.70;99.90
18043;DHT22;9146;48.074;11.968;2023-07-09T03:34:01;16.70;99.90
18043;DHT22;9146;48.074;11.968;2023-07-09T03:36:30;16.70;99.90
18043;DHT22;9146;48.074;11.968;2023-07-09T03:38:57;16.70;99.90
18043;DHT22;9146;48.074;11.968;2023-07-09T03:41:25;16.80;99.90
18043;DHT22;9146;48.074;11.968;2023-07-09T03:43:52;16.80;99.90
18043;DHT22;9146;48.074;11.968;2023-07-09T03:46:19;16.80;99.90
18043;DHT22;9146;48.074;11.968;2023-07-09T03:48:46;16.80;99.90
18043;DHT22;9146;48.074;11.968;2023-07-09T03:51:13;16.90;99.90
18043;DHT22;9146;48.074;11.968;2023-07-09T03:53:40;16.90;99.90
18043;DHT22;9146;48.074;11.968;2023-07-09T03:56:07;17.00;99.90
18043;DHT22;9146;48.074;11.968;2023-07-09T03:58:35;17.00;99.90
18043;DHT22;9146;48.074;11.968;2023-07-09T04:01:02;17.00;99.90
18043;DHT22;9146;48.074;11.968;2023-07-09T04:03:30;17.10;99.90
18043;DHT22;9146;48.074;11.968;2023-07-09T04:05:57;17.20;99.90
18043;DHT22;9146;48.074;11.968;2023-07-09T04:08:24;17.20;99.90
18043;DHT22;9146;48.074;11.968;2023-07-09T04:10:53;17.30;99.90
18043;DHT22;9146;48.074;11.968;2023-07-09T04:13:20;17.30;99.90
18043;DHT22;9146;48.074;11.968;2023-07-09T04:15:48;17.50;99.90
18043;DHT22;9146;48.074;11.968;2023-07-09T04:18:15;17.50;99.90
18043;DHT22;9146;48.074;11.968;2023-07-09T04:20:43;17.70;99.90
18043;DHT22;9146;48.074;11.968;2023-07-09T04:23:10;17.80;99.90
18043;DHT22;9146;48.074;11.968;2023-07-09T04:25:37;17.90;99.90
18043;DHT22;9146;48.074;11.968;2023-07-09T04:28:05;18.00;99.90
18043;DHT22;9146;48.074;11.968;2023-07-09T04:30:32;18.20;99.90
18043;DHT22;9146;48.074;11.968;2023-07-09T04:33:00;18.30;99.90
18043;DHT22;9146;48.074;11.968;2023-07-09T04:35:27;18.40;99.90
18043;DHT22;9146;48.074;11.968;2023-07-09T04:37:54;18.50;99.90
18043;DHT22;9146;48.074;11.968;2023-07-09T04:40:21;18.60;99.90
18043;DHT22;9146;48.074;11.968;2023-07-09T04:42:47;18.70;99.90
18043;DHT22;9146;48.074;11.968;2023-07-09T04:45:14;18.80;99.90
18043;DHT22;9146;48.074;11.968;2023-07-09T04:47:41;19.00;99.90
18043;DHT22;9146;48.074;11.968;2023-07-09T04:50:11;19.20;99.90
18043;DHT22;9146;48.074;11.968;2023-07-09T04:52:39;19.40;99.90
18043;DHT22;9146;48.074;11.968;2023-07-09T04:55:06;19.60;99.90
18043;DHT22;9146;48.074;11.968;2023-07-09T04:57:34;19.80;99.90
18043;DHT22;9146;48.074;11.968;2023-07-09T05:00:02;20.00;99.90
18043;DHT22;9146;48.074;11.968;2023-07-09T05:02:30;20.20;99.90
18043;DHT22;9146;48.074;11.968;2023-07-09T05:04:57;20.40;99.90
18043;DHT22;9146;48.074;11.968;2023-07-09T05:07:25;20.50;99.90
18043;DHT22;9146;48.074;11.968;2023-07-09T05:09:52;20.60;99.90
18043;DHT22;9146;48.074;11.968;2023-07-09T05:12:19;20.70;99.90
18043;DHT22;9146;48.074;11.968;2023-07-09T05:14:46;20.80;99.90
18043;DHT22;9146;48.074;11.968;2023-07-09T05:17:13;20.90;99.90
18043;DHT22;9146;48.074;11.968;2023-07-09T05:19:40;21.00;99.90
18043;DHT22;9146;48.074;11.968;2023-07-09T05:22:07;21.20;99.90
18043;DHT22;9146;48.074;11.968;2023-07-09T05:24:35;21.20;99.90
18043;DHT22;9146;48.074;11.968;2023-07-09T05:27:02;21.40;99.90
18043;DHT22;9146;48.074;11.968;2023-07-09T05:29:29;21.50;99.90
18043;DHT22;9146;48.074;11.968;2023-07-09T05:31:56;21.60;99.90
18043;DHT22;9146;48.074;11.968;2023-07-09T05:34:23;21.80;99.90
18043;DHT22;9146;48.074;11.968;2023-07-09T05:36:50;21.90;99.90
18043;DHT22;9146;48.074;11.968;2023-07-09T05:39:17;22.00;99.90
18043;DHT22;9146;48.074;11.968;2023-07-09T05:41:45;22.10;99.90
18043;DHT22;9146;48.074;11.968;2023-07-09T05:44:12;22.30;99.90
18043;DHT22;9146;48.074;11.968;2023-07-09T05:46:38;22.40;99.90
18043;DHT22;9146;48.074;11.968;2023-07-09T05:49:06;22.60;99.90
18043;DHT22;9146;48.074;11.968;2023-07-09T05:51:33;22.70;99.90
18043;DHT22;9146;48.074;11.968;2023-07-09T05:54:01;22.80;99.90
18043;DHT22;9146;48.074;11.968;2023-07-09T05:56:28;22.90;99.90
18043;DHT22;9146;48.074;11.968;2023-07-09T05:58:56;23.10;99.90
18043;DHT22;9146;48.074;11.968;2023-07-09T06:01:23;23.20;99.90
18043;DHT22;9146;48.074;11.968;2023-07-09T06:03:53;23.30;99.90
18043;DHT22;9146;48.074;11.968;2023-07-09T06:06:20;23.40;99.90
18043;DHT22;9146;48.074;11.968;2023-07-09T06:08:47;23.50;99.90
18043;DHT22;9146;48.074;11.968;2023-07-09T06:11:15;23.60;99.90
18043;DHT22;9146;48.074;11.968;2023-07-09T06:13:43;23.60;99.90
18043;DHT22;9146;48.074;11.968;2023-07-09T06:16:11;23.70;99.90
18043;DHT22;9146;48.074;11.968;2023-07-09T06:18:38;23.70;99.90
18043;DHT22;9146;48.074;11.968;2023-07-09T06:21:06;23.80;99.90
18043;DHT22;9146;48.074;11.968;2023-07-09T06:23:33;23.80;99.90
18043;DHT22;9146;48.074;11.968;2023-07-09T06:25:59;23.80;99.90
18043;DHT22;9146;48.074;11.968;2023-07-09T06:28:27;23.80;99.90
18043;DHT22;9146;48.074;11.968;2023-07-09T06:30:55;23.70;99.90
18043;DHT22;9146;48.074;11.968;2023-07-09T06:33:25;23.60;99.90
18043;DHT22;9146;48.074;11.968;2023-07-09T06:35:54;23.70;99.90
18043;DHT22;9146;48.074;11.968;2023-07-09T06:38:22;23.70;99.90
18043;DHT22;9146;48.074;11.968;2023-07-09T06:40:49;23.80;99.90
18043;DHT22;9146;48.074;11.968;2023-07-09T06:43:16;23.90;99.90
18043;DHT22;9146;48.074;11.968;2023-07-09T06:45:49;24.10;99.90
18043;DHT22;9146;48.074;11.968;2023-07-09T06:48:16;24.30;99.90
18043;DHT22;9146;48.074;11.968;2023-07-09T06:50:45;24.30;99.90
18043;DHT22;9146;48.074;11.968;2023-07-09T06:53:12;24.50;99.90
18043;DHT22;9146;48.074;11.968;2023-07-09T06:55:39;24.60;99.90
18043;DHT22;9146;48.074;11.968;2023-07-09T06:58:06;24.70;99.90
18043;DHT22;9146;48.074;11.968;2023-07-09T07:00:33;24.80;99.90
18043;DHT22;9146;48.074;11.968;2023-07-09T07:03:01;24.80;99.90
18043;DHT22;9146;48.074;11.968;2023-07-09T07:05:27;24.80;99.90
18043;DHT22;9146;48.074;11.968;2023-07-09T07:07:56;24.90;99.90
18043;DHT22;9146;48.074;11.968;2023-07-09T07:10:23;25.00;99.90
18043;DHT22;9146;48.074;11.968;2023-07-09T07:12:49;25.00;99.90
18043;DHT22;9146;48.074;11.968;2023-07-09T07:15:17;25.20;99.90
18043;DHT22;9146;48.074;11.968;2023-07-09T07:17:44;25.20;99.90
18043;DHT22;9146;48.074;11.968;2023-07-09T07:20:13;25.40;99.90
18043;DHT22;9146;48.074;11.968;2023-07-09T07:22:41;25.50;99.90
18043;DHT22;9146;48.074;11.968;2023-07-09T07:25:09;25.60;99.90
18043;DHT22;9146;48.074;11.968;2023-07-09T07:27:37;25.70;99.90
18043;DHT22;9146;48.074;11.968;2023-07-09T07:30:06;25.90;99.90
18043;DHT22;9146;48.074;11.968;2023-07-09T07:32:35;26.00;99.90
18043;DHT22;9146;48.074;11.968;2023-07-09T07:35:05;26.10;99.90
18043;DHT22;9146;48.074;11.968;2023-07-09T07:37:32;26.30;99.90
18043;DHT22;9146;48.074;11.968;2023-07-09T07:39:59;26.40;99.90
18043;DHT22;9146;48.074;11.968;2023-07-09T07:42:35;26.40;99.90
18043;DHT22;9146;48.074;11.968;2023-07-09T07:45:03;26.50;99.90
18043;DHT22;9146;48.074;11.968;2023-07-09T07:47:30;26.50;99.90
18043;DHT22;9146;48.074;11.968;2023-07-09T07:49:58;26.60;99.90
18043;DHT22;9146;48.074;11.968;2023-07-09T07:52:26;26.70;99.90
18043;DHT22;9146;48.074;11.968;2023-07-09T07:54:54;26.70;99.90
18043;DHT22;9146;48.074;11.968;2023-07-09T07:57:24;26.80;99.90
18043;DHT22;9146;48.074;11.968;2023-07-09T07:59:52;26.90;99.90
18043;DHT22;9146;48.074;11.968;2023-07-09T08:02:19;27.00;99.90
18043;DHT22;9146;48.074;11.968;2023-07-09T08:04:46;27.00;99.90
18043;DHT22;9146;48.074;11.968;2023-07-09T08:07:13;27.10;99.90
18043;DHT22;9146;48.074;11.968;2023-07-09T08:09:40;27.10;99.90
18043;DHT22;9146;48.074;11.968;2023-07-09T08:12:09;27.30;99.90
18043;DHT22;9146;48.074;11.968;2023-07-09T08:14:38;27.30;99.90
18043;DHT22;9146;48.074;11.968;2023-07-09T08:17:07;27.40;99.90
18043;DHT22;9146;48.074;11.968;2023-07-09T08:19:44;27.50;99.90
18043;DHT22;9146;48.074;11.968;2023-07-09T08:22:12;27.60;99.90
18043;DHT22;9146;48.074;11.968;2023-07-09T08:24:39;27.70;99.90
18043;DHT22;9146;48.074;11.968;2023-07-09T08:27:06;27.80;99.90
18043;DHT22;9146;48.074;11.968;2023-07-09T08:29:34;27.80;99.90
18043;DHT22;9146;48.074;11.968;2023-07-09T08:32:01;27.90;99.90
18043;DHT22;9146;48.074;11.968;2023-07-09T08:34:29;27.90;99.30
18043;DHT22;9146;48.074;11.968;2023-07-09T08:36:56;28.00;97.40
18043;DHT22;9146;48.074;11.968;2023-07-09T08:39:25;28.00;96.10
18043;DHT22;9146;48.074;11.968;2023-07-09T08:41:54;28.10;95.40
18043;DHT22;9146;48.074;11.968;2023-07-09T08:44:50;28.20;96.00
18043;DHT22;9146;48.074;11.968;2023-07-09T08:47:27;28.20;96.50
18043;DHT22;9146;48.074;11.968;2023-07-09T08:50:04;28.30;96.50
18043;DHT22;9146;48.074;11.968;2023-07-09T08:52:36;28.40;95.00
18043;DHT22;9146;48.074;11.968;2023-07-09T08:55:06;28.40;93.80
18043;DHT22;9146;48.074;11.968;2023-07-09T08:57:37;28.50;92.50
18043;DHT22;9146;48.074;11.968;2023-07-09T09:00:12;28.50;92.50
18043;DHT22;9146;48.074;11.968;2023-07-09T09:02:46;28.60;92.70
18043;DHT22;9146;48.074;11.968;2023-07-09T09:05:18;28.70;92.30
18043;DHT22;9146;48.074;11.968;2023-07-09T09:07:49;28.70;92.50
18043;DHT22;9146;48.074;11.968;2023-07-09T09:10:18;28.80;91.60
18043;DHT22;9146;48.074;11.968;2023-07-09T09:13:02;28.80;91.80
18043;DHT22;9146;48.074;11.968;2023-07-09T09:15:31;28.80;91.90
18043;DHT22;9146;48.074;11.968;2023-07-09T09:18:17;28.80;90.40
18043;DHT22;9146;48.074;11.968;2023-07-09T09:20:48;28.80;90.30
18043;DHT22;9146;48.074;11.968;2023-07-09T09:23:18;28.80;89.80
18043;DHT22;9146;48.074;11.968;2023-07-09T09:25:50;28.80;90.10
18043;DHT22;9146;48.074;11.968;2023-07-09T09:28:18;28.90;90.00
18043;DHT22;9146;48.074;11.968;2023-07-09T09:30:45;29.00;88.50
18043;DHT22;9146;48.074;11.968;2023-07-09T09:33:12;29.10;87.20
18043;DHT22;9146;48.074;11.968;2023-07-09T09:35:40;29.20;87.10
18043;DHT22;9146;48.074;11.968;2023-07-09T09:38:12;29.30;86.30
18043;DHT22;9146;48.074;11.968;2023-07-09T09:40:40;29.30;85.10
18043;DHT22;9146;48.074;11.968;2023-07-09T09:43:13;29.40;85.20
18043;DHT22;9146;48.074;11.968;2023-07-09T09:45:42;29.50;85.40
18043;DHT22;9146;48.074;11.968;2023-07-09T09:48:15;29.60;85.40
18043;DHT22;9146;48.074;11.968;2023-07-09T09:50:44;29.60;84.80
18043;DHT22;9146;48.074;11.968;2023-07-09T09:53:19;29.70;84.10
18043;DHT22;9146;48.074;11.968;2023-07-09T09:55:47;29.70;83.40
18043;DHT22;9146;48.074;11.968;2023-07-09T09:58:16;29.70;82.50
18043;DHT22;9146;48.074;11.968;2023-07-09T10:00:49;29.80;82.80
18043;DHT22;9146;48.074;11.968;2023-07-09T10:03:17;29.80;82.90
18043;DHT22;9146;48.074;11.968;2023-07-09T10:05:48;29.90;80.90
18043;DHT22;9146;48.074;11.968;2023-07-09T10:08:26;29.80;79.70
18043;DHT22;9146;48.074;11.968;2023-07-09T10:11:04;29.80;79.00
18043;DHT22;9146;48.074;11.968;2023-07-09T10:13:37;29.70;78.00
18043;DHT22;9146;48.074;11.968;2023-07-09T10:16:10;29.80;78.70
18043;DHT22;9146;48.074;11.968;2023-07-09T10:18:49;29.80;78.70
18043;DHT22;9146;48.074;11.968;2023-07-09T10:21:23;29.90;76.80
18043;DHT22;9146;48.074;11.968;2023-07-09T10:24:18;29.90;77.20
18043;DHT22;9146;48.074;11.968;2023-07-09T10:26:56;29.90;76.80
18043;DHT22;9146;48.074;11.968;2023-07-09T10:29:35;30.00;75.60
18043;DHT22;9146;48.074;11.968;2023-07-09T10:32:15;30.10;75.10
18043;DHT22;9146;48.074;11.968;2023-07-09T10:34:51;30.20;74.30
18043;DHT22;9146;48.074;11.968;2023-07-09T10:37:44;30.30;74.50
18043;DHT22;9146;48.074;11.968;2023-07-09T10:40:17;30.30;73.50
18043;DHT22;9146;48.074;11.968;2023-07-09T10:42:50;30.50;72.90
18043;DHT22;9146;48.074;11.968;2023-07-09T10:45:22;30.50;72.40
18043;DHT22;9146;48.074;11.968;2023-07-09T10:47:56;30.50;73.20
18043;DHT22;9146;48.074;11.968;2023-07-09T10:50:31;30.60;72.80
18043;DHT22;9146;48.074;11.968;2023-07-09T10:53:04;30.60;72.10
18043;DHT22;9146;48.074;11.968;2023-07-09T10:55:41;30.70;71.80
18043;DHT22;9146;48.074;11.968;2023-07-09T10:58:21;30.70;70.50
18043;DHT22;9146;48.074;11.968;2023-07-09T11:00:49;30.70;69.20
18043;DHT22;9146;48.074;11.968;2023-07-09T11:03:19;30.80;69.40
18043;DHT22;9146;48.074;11.968;2023-07-09T11:05:46;30.80;70.20
18043;DHT22;9146;48.074;11.968;2023-07-09T11:08:18;30.80;71.10
18043;DHT22;9146;48.074;11.968;2023-07-09T11:10:50;30.80;70.50
18043;DHT22;9146;48.074;11.968;2023-07-09T11:13:25;30.90;70.40
18043;DHT22;9146;48.074;11.968;2023-07-09T11:15:56;31.00;70.50
18043;DHT22;9146;48.074;11.968;2023-07-09T11:18:25;31.00;69.20
18043;DHT22;9146;48.074;11.968;2023-07-09T11:20:59;31.00;69.30
18043;DHT22;9146;48.074;11.968;2023-07-09T11:23:37;31.00;68.30
18043;DHT22;9146;48.074;11.968;2023-07-09T11:26:12;31.00;67.30
18043;DHT22;9146;48.074;11.968;2023-07-09T11:28:41;31.00;67.60
18043;DHT22;9146;48.074;11.968;2023-07-09T11:31:17;31.00;66.60
18043;DHT22;9146;48.074;11.968;2023-07-09T11:33:48;31.00;65.00
18043;DHT22;9146;48.074;11.968;2023-07-09T11:36:25;31.00;63.50
18043;DHT22;9146;48.074;11.968;2023-07-09T11:38:54;31.10;63.60
18043;DHT22;9146;48.074;11.968;2023-07-09T11:41:37;31.00;65.00
18043;DHT22;9146;48.074;11.968;2023-07-09T11:44:12;31.10;64.70
18043;DHT22;9146;48.074;11.968;2023-07-09T11:46:52;31.10;64.70
18043;DHT22;9146;48.074;11.968;2023-07-09T11:49:23;31.20;65.10
18043;DHT22;9146;48.074;11.968;2023-07-09T11:51:53;31.30;64.10
18043;DHT22;9146;48.074;11.968;2023-07-09T11:54:21;31.40;61.50
18043;DHT22;9146;48.074;11.968;2023-07-09T11:56:57;31.40;61.50
18043;DHT22;9146;48.074;11.968;2023-07-09T11:59:24;31.40;60.50
18043;DHT22;9146;48.074;11.968;2023-07-09T12:01:52;31.40;60.50
18043;DHT22;9146;48.074;11.968;2023-07-09T12:04:27;31.50;59.40
18043;DHT22;9146;48.074;11.968;2023-07-09T12:06:58;31.50;59.60
18043;DHT22;9146;48.074;11.968;2023-07-09T12:09:32;31.50;59.70
18043;DHT22;9146;48.074;11.968;2023-07-09T12:12:00;31.60;58.80
18043;DHT22;9146;48.074;11.968;2023-07-09T12:14:27;31.60;58.30
18043;DHT22;9146;48.074;11.968;2023-07-09T12:16:54;31.70;58.20
18043;DHT22;9146;48.074;11.968;2023-07-09T12:19:24;31.80;58.00
18043;DHT22;9146;48.074;11.968;2023-07-09T12:21:53;31.90;57.20
18043;DHT22;9146;48.074;11.968;2023-07-09T12:24:24;32.00;57.40
18043;DHT22;9146;48.074;11.968;2023-07-09T12:26:52;32.00;56.80
18043;DHT22;9146;48.074;11.968;2023-07-09T12:29:24;32.00;56.80
18043;DHT22;9146;48.074;11.968;2023-07-09T12:31:51;31.90;56.60
18043;DHT22;9146;48.074;11.968;2023-07-09T12:34:18;31.90;56.40
18043;DHT22;9146;48.074;11.968;2023-07-09T12:36:48;31.90;56.40
18043;DHT22;9146;48.074;11.968;2023-07-09T12:39:19;31.80;56.60
18043;DHT22;9146;48.074;11.968;2023-07-09T12:41:49;31.90;56.90
18043;DHT22;9146;48.074;11.968;2023-07-09T12:44:17;32.00;56.60
18043;DHT22;9146;48.074;11.968;2023-07-09T12:46:47;32.10;56.30
18043;DHT22;9146;48.074;11.968;2023-07-09T12:49:22;32.10;56.80
18043;DHT22;9146;48.074;11.968;2023-07-09T12:51:49;32.10;56.90
18043;DHT22;9146;48.074;11.968;2023-07-09T12:54:17;32.10;56.60
18043;DHT22;9146;48.074;11.968;2023-07-09T12:56:45;32.10;56.80
18043;DHT22;9146;48.074;11.968;2023-07-09T12:59:17;32.10;57.00
18043;DHT22;9146;48.074;11.968;2023-07-09T13:01:50;32.10;56.70
18043;DHT22;9146;48.074;11.968;2023-07-09T13:04:18;32.10;55.70
18043;DHT22;9146;48.074;11.968;2023-07-09T13:06:45;32.10;56.00
18043;DHT22;9146;48.074;11.968;2023-07-09T13:09:19;32.20;56.20
18043;DHT22;9146;48.074;11.968;2023-07-09T13:11:47;32.20;56.50
18043;DHT22;9146;48.074;11.968;2023-07-09T13:14:20;32.20;55.90
18043;DHT22;9146;48.074;11.968;2023-07-09T13:16:49;32.20;55.40
18043;DHT22;9146;48.074;11.968;2023-07-09T13:19:16;32.10;55.40
18043;DHT22;9146;48.074;11.968;2023-07-09T13:21:43;32.20;54.60
18043;DHT22;9146;48.074;11.968;2023-07-09T13:24:17;32.20;54.50
18043;DHT22;9146;48.074;11.968;2023-07-09T13:26:44;32.10;54.30
18043;DHT22;9146;48.074;11.968;2023-07-09T13:29:13;32.30;54.40
18043;DHT22;9146;48.074;11.968;2023-07-09T13:31:41;32.30;53.70
18043;DHT22;9146;48.074;11.968;2023-07-09T13:34:19;32.30;52.60
18043;DHT22;9146;48.074;11.968;2023-07-09T13:36:46;32.30;52.80
18043;DHT22;9146;48.074;11.968;2023-07-09T13:39:13;32.30;52.50
18043;DHT22;9146;48.074;11.968;2023-07-09T13:41:43;32.30;52.40
18043;DHT22;9146;48.074;11.968;2023-07-09T13:44:15;32.30;52.20
18043;DHT22;9146;48.074;11.968;2023-07-09T13:46:43;32.30;52.10
18043;DHT22;9146;48.074;11.968;2023-07-09T13:49:13;32.30;51.70
18043;DHT22;9146;48.074;11.968;2023-07-09T13:51:44;32.40;51.90
18043;DHT22;9146;48.074;11.968;2023-07-09T13:54:15;32.40;50.80
18043;DHT22;9146;48.074;11.968;2023-07-09T13:56:42;32.40;50.70
18043;DHT22;9146;48.074;11.968;2023-07-09T13:59:14;32.40;51.00
18043;DHT22;9146;48.074;11.968;2023-07-09T14:01:42;32.50;51.00
18043;DHT22;9146;48.074;11.968;2023-07-09T14:04:12;32.50;50.00
18043;DHT22;9146;48.074;11.968;2023-07-09T14:06:40;32.60;49.70
18043;DHT22;9146;48.074;11.968;2023-07-09T14:09:08;32.50;49.50
18043;DHT22;9146;48.074;11.968;2023-07-09T14:11:37;32.60;50.00
18043;DHT22;9146;48.074;11.968;2023-07-09T14:14:16;32.60;50.00
18043;DHT22;9146;48.074;11.968;2023-07-09T14:16:43;32.80;50.10
18043;DHT22;9146;48.074;11.968;2023-07-09T14:19:15;32.90;49.90
18043;DHT22;9146;48.074;11.968;2023-07-09T14:21:43;33.10;49.70
18043;DHT22;9146;48.074;11.968;2023-07-09T14:24:18;33.20;50.00
18043;DHT22;9146;48.074;11.968;2023-07-09T14:26:46;33.30;49.60
18043;DHT22;9146;48.074;11.968;2023-07-09T14:29:14;33.30;48.70
18043;DHT22;9146;48.074;11.968;2023-07-09T14:31:42;33.40;48.50
18043;DHT22;9146;48.074;11.968;2023-07-09T14:34:20;33.60;48.70
18043;DHT22;9146;48.074;11.968;2023-07-09T14:36:48;33.60;49.30
18043;DHT22;9146;48.074;11.968;2023-07-09T14:39:15;33.70;49.10
18043;DHT22;9146;48.074;11.968;2023-07-09T14:41:43;33.70;49.00
18043;DHT22;9146;48.074;11.968;2023-07-09T14:44:22;33.80;48.30
18043;DHT22;9146;48.074;11.968;2023-07-09T14:46:50;33.80;47.70
18043;DHT22;9146;48.074;11.968;2023-07-09T14:49:19;33.70;46.80
18043;DHT22;9146;48.074;11.968;2023-07-09T14:51:48;33.70;46.20
18043;DHT22;9146;48.074;11.968;2023-07-09T14:54:21;33.70;46.40
18043;DHT22;9146;48.074;11.968;2023-07-09T14:56:49;33.60;46.80
18043;DHT22;9146;48.074;11.968;2023-07-09T14:59:16;33.70;47.30
18043;DHT22;9146;48.074;11.968;2023-07-09T15:01:44;33.70;46.80
18043;DHT22;9146;48.074;11.968;2023-07-09T15:04:27;33.70;46.80
18043;DHT22;9146;48.074;11.968;2023-07-09T15:06:55;33.60;47.00
18043;DHT22;9146;48.074;11.968;2023-07-09T15:09:24;33.60;47.30
18043;DHT22;9146;48.074;11.968;2023-07-09T15:11:53;33.60;47.40
18043;DHT22;9146;48.074;11.968;2023-07-09T15:14:21;33.60;47.00
18043;DHT22;9146;48.074;11.968;2023-07-09T15:16:48;33.60;46.80
18043;DHT22;9146;48.074;11.968;2023-07-09T15:19:18;33.60;46.70
18043;DHT22;9146;48.074;11.968;2023-07-09T15:21:47;33.60;46.80
18043;DHT22;9146;48.074;11.968;2023-07-09T15:24:19;33.60;47.20
18043;DHT22;9146;48.074;11.968;2023-07-09T15:26:49;33.60;46.60
18043;DHT22;9146;48.074;11.968;2023-07-09T15:29:18;33.60;46.00
18043;DHT22;9146;48.074;11.968;2023-07-09T15:31:45;33.50;46.10
18043;DHT22;9146;48.074;11.968;2023-07-09T15:34:12;33.50;46.10
18043;DHT22;9146;48.074;11.968;2023-07-09T15:36:41;33.60;44.80
18043;DHT22;9146;48.074;11.968;2023-07-09T15:39:11;33.60;44.90
18043;DHT22;9146;48.074;11.968;2023-07-09T15:41:38;33.60;45.10
18043;DHT22;9146;48.074;11.968;2023-07-09T15:44:10;33.60;45.40